Alpine Airstrip, AK

11:34 AM AKST on January 26, 2015 (GMT -0900)
Deadhorse Alpine Airstrip | Change Station
CLOSE
Current Station
Airport
Location: Deadhorse Alpine Airstrip,
Elevation: 16 ft
Nearby Weather Stations
Active Advisory: Winter Storm Warning

Elev 16 ft 70.34 °N, 150.94 °W | Updated 46 minutes ago

Blowing Snow
Blowing Snow Mist
-20 °F
Feels Like -48 °F
N
18
Wind Variable Wind from WSW

Today
High -- | Low -- °F
--% Chance of Precip.
Yesterday
High -- | Low -- °F
Precip. -- in
11:31 AM 3:01 PM
Waxing Crescent, 46% visible
Pressure 30.13 in
Visibility 2.0 miles
Clouds Mostly Cloudy 5000 ft
Windchill -48 °F
Dew Point -27 °F
Humidity 69%
Rainfall 0.00 in
Snow Depth Not available.
UV 0 out of 12
Pollen Not available.
Air Quality Not available.
Flu Activity Not available.
METAR PALP 261948Z 24016KT 2SM BLSN BR BKN050 M29/M33 A3013

More Conditions Fewer Conditions

Pressure 30.13 in
Visibility 2.0 miles
Clouds Mostly Cloudy 5000 ft
Windchill -48 °F
Dew Point -27 °F
Humidity 69%
Rainfall 0.00 in
Snow Depth Not available.
UV 0 out of 12
Pollen Not available.
Air Quality Not available.
Flu Activity Not available.
METAR PALP 261948Z 24016KT 2SM BLSN BR BKN050 M29/M33 A3013

More Conditions Fewer Conditions

10-Day Weather Forecast

Almanac

Astronomy

Jan. 26, 2015 Rise Set
Actual Time
Civil Twilight
Nautical Twilight
Astronomical Twilight
Moon
Length of Visible Light
Length of Day
Tomorrow will be .
, % of the Moon is Illuminated

Today's Extremes

State Highs State Lows

Community

WunderPhotos

Upload Photos

1,790,349 photos uploaded!

WunderBlogs® & News

Nearby

Air Quality

  Air Quality AQ Index Pollutant
Not available.

Snow Depth

Station Depth Elevation

Earthquake Activity

City Distance Mag. Time & Date
Minimum magnitude displayed is 2.5.

Coastal Water Temperatures

Place Temperature

Nearby Weather Stations